sensor_id;sensor_type;location;lat;lon;timestamp;pressure;altitude;pressure_sealevel;temperature;humidity
3428;BME280;1727;42.624;23.406;2023-02-28T00:00:10;95315.09;;;8.81;100.00
3428;BME280;1727;42.624;23.406;2023-02-28T00:02:37;95316.66;;;8.83;100.00
3428;BME280;1727;42.624;23.406;2023-02-28T00:05:05;95324.28;;;8.86;100.00
3428;BME280;1727;42.624;23.406;2023-02-28T00:07:33;95327.41;;;8.91;100.00
3428;BME280;1727;42.624;23.406;2023-02-28T00:10:00;95321.75;;;8.97;100.00
3428;BME280;1727;42.624;23.406;2023-02-28T00:12:27;95329.88;;;9.06;100.00
3428;BME280;1727;42.624;23.406;2023-02-28T00:14:55;95329.03;;;9.05;100.00
3428;BME280;1727;42.624;23.406;2023-02-28T00:17:22;95324.09;;;9.13;100.00
3428;BME280;1727;42.624;23.406;2023-02-28T00:19:49;95320.41;;;9.16;100.00
3428;BME280;1727;42.624;23.406;2023-02-28T00:22:18;95319.22;;;9.20;100.00
3428;BME280;1727;42.624;23.406;2023-02-28T00:24:45;95328.66;;;9.22;100.00
3428;BME280;1727;42.624;23.406;2023-02-28T00:27:13;95323.63;;;9.19;100.00
3428;BME280;1727;42.624;23.406;2023-02-28T00:29:40;95321.59;;;9.12;100.00
3428;BME280;1727;42.624;23.406;2023-02-28T00:32:08;95330.09;;;9.03;100.00
3428;BME280;1727;42.624;23.406;2023-02-28T00:34:35;95331.56;;;8.94;100.00
3428;BME280;1727;42.624;23.406;2023-02-28T00:37:03;95331.56;;;8.94;100.00
3428;BME280;1727;42.624;23.406;2023-02-28T00:39:31;95317.53;;;8.95;100.00
3428;BME280;1727;42.624;23.406;2023-02-28T00:41:59;95301.66;;;8.98;100.00
3428;BME280;1727;42.624;23.406;2023-02-28T00:44:26;95312.41;;;9.06;100.00
3428;BME280;1727;42.624;23.406;2023-02-28T00:46:53;95311.00;;;9.13;100.00
3428;BME280;1727;42.624;23.406;2023-02-28T00:49:22;95303.38;;;9.10;100.00
3428;BME280;1727;42.624;23.406;2023-02-28T00:51:49;95307.44;;;9.14;100.00
3428;BME280;1727;42.624;23.406;2023-02-28T00:54:16;95301.13;;;9.17;100.00
3428;BME280;1727;42.624;23.406;2023-02-28T00:56:43;95298.91;;;9.23;100.00
3428;BME280;1727;42.624;23.406;2023-02-28T00:59:11;95318.81;;;9.26;100.00
3428;BME280;1727;42.624;23.406;2023-02-28T01:01:38;95315.34;;;9.25;100.00
3428;BME280;1727;42.624;23.406;2023-02-28T01:04:05;95321.31;;;9.27;100.00
3428;BME280;1727;42.624;23.406;2023-02-28T01:06:33;95330.50;;;9.33;100.00
3428;BME280;1727;42.624;23.406;2023-02-28T01:09:00;95328.50;;;9.37;100.00
3428;BME280;1727;42.624;23.406;2023-02-28T01:11:26;95320.47;;;9.27;100.00
3428;BME280;1727;42.624;23.406;2023-02-28T01:13:53;95313.84;;;9.10;100.00
3428;BME280;1727;42.624;23.406;2023-02-28T01:16:20;95324.03;;;9.02;100.00
3428;BME280;1727;42.624;23.406;2023-02-28T01:18:47;95319.31;;;8.94;100.00
3428;BME280;1727;42.624;23.406;2023-02-28T01:21:15;95313.16;;;8.95;100.00
3428;BME280;1727;42.624;23.406;2023-02-28T01:23:44;95302.28;;;8.89;100.00
3428;BME280;1727;42.624;23.406;2023-02-28T01:26:13;95312.31;;;8.95;100.00
3428;BME280;1727;42.624;23.406;2023-02-28T01:28:41;95309.63;;;8.96;100.00
3428;BME280;1727;42.624;23.406;2023-02-28T01:31:08;95298.38;;;8.94;100.00
3428;BME280;1727;42.624;23.406;2023-02-28T01:33:35;95309.50;;;8.98;100.00
3428;BME280;1727;42.624;23.406;2023-02-28T01:36:04;95305.81;;;9.00;100.00
3428;BME280;1727;42.624;23.406;2023-02-28T01:38:33;95316.28;;;9.00;100.00
3428;BME280;1727;42.624;23.406;2023-02-28T01:41:01;95305.38;;;9.07;100.00
3428;BME280;1727;42.624;23.406;2023-02-28T01:43:30;95311.06;;;9.00;100.00
3428;BME280;1727;42.624;23.406;2023-02-28T01:45:58;95314.19;;;9.06;100.00
3428;BME280;1727;42.624;23.406;2023-02-28T01:48:27;95313.78;;;8.99;100.00
3428;BME280;1727;42.624;23.406;2023-02-28T01:50:58;95307.00;;;8.96;100.00
3428;BME280;1727;42.624;23.406;2023-02-28T01:53:30;95307.13;;;8.82;100.00
3428;BME280;1727;42.624;23.406;2023-02-28T01:55:58;95311.84;;;8.77;100.00
3428;BME280;1727;42.624;23.406;2023-02-28T01:58:26;95315.31;;;8.78;100.00
3428;BME280;1727;42.624;23.406;2023-02-28T02:00:53;95318.66;;;8.80;100.00
3428;BME280;1727;42.624;23.406;2023-02-28T02:03:20;95325.88;;;8.76;100.00
3428;BME280;1727;42.624;23.406;2023-02-28T02:05:47;95322.66;;;8.73;100.00
3428;BME280;1727;42.624;23.406;2023-02-28T02:08:17;95318.38;;;8.72;100.00
3428;BME280;1727;42.624;23.406;2023-02-28T02:10:52;95314.59;;;8.76;100.00
3428;BME280;1727;42.624;23.406;2023-02-28T02:16:23;95321.03;;;8.83;100.00
3428;BME280;1727;42.624;23.406;2023-02-28T02:18:58;95325.84;;;8.89;100.00
3428;BME280;1727;42.624;23.406;2023-02-28T02:24:36;95315.88;;;8.94;100.00
3428;BME280;1727;42.624;23.406;2023-02-28T02:27:39;95311.47;;;8.94;100.00
3428;BME280;1727;42.624;23.406;2023-02-28T02:33:10;95313.69;;;9.00;100.00
3428;BME280;1727;42.624;23.406;2023-02-28T02:35:47;95309.16;;;9.03;100.00
3428;BME280;1727;42.624;23.406;2023-02-28T02:38:26;95318.06;;;9.00;100.00
3428;BME280;1727;42.624;23.406;2023-02-28T02:41:01;95315.47;;;9.00;100.00
3428;BME280;1727;42.624;23.406;2023-02-28T02:43:34;95316.50;;;8.97;100.00
3428;BME280;1727;42.624;23.406;2023-02-28T02:46:04;95325.19;;;8.98;100.00
3428;BME280;1727;42.624;23.406;2023-02-28T02:48:34;95328.47;;;8.89;100.00
3428;BME280;1727;42.624;23.406;2023-02-28T02:51:06;95317.09;;;8.64;100.00
3428;BME280;1727;42.624;23.406;2023-02-28T02:53:41;95316.00;;;8.43;100.00
3428;BME280;1727;42.624;23.406;2023-02-28T02:56:09;95333.03;;;8.36;100.00
3428;BME280;1727;42.624;23.406;2023-02-28T02:58:40;95342.94;;;8.31;100.00
3428;BME280;1727;42.624;23.406;2023-02-28T03:01:11;95340.34;;;7.93;100.00
3428;BME280;1727;42.624;23.406;2023-02-28T03:03:39;95348.53;;;7.61;100.00
3428;BME280;1727;42.624;23.406;2023-02-28T03:06:08;95350.81;;;7.53;100.00
3428;BME280;1727;42.624;23.406;2023-02-28T03:08:37;95350.63;;;7.56;100.00
3428;BME280;1727;42.624;23.406;2023-02-28T03:11:05;95363.09;;;7.38;100.00
3428;BME280;1727;42.624;23.406;2023-02-28T03:13:59;95363.41;;;7.46;100.00
3428;BME280;1727;42.624;23.406;2023-02-28T03:16:34;95373.28;;;7.29;100.00
3428;BME280;1727;42.624;23.406;2023-02-28T03:19:12;95374.91;;;7.17;100.00
3428;BME280;1727;42.624;23.406;2023-02-28T03:21:53;95377.38;;;7.06;100.00
3428;BME280;1727;42.624;23.406;2023-02-28T03:24:25;95382.28;;;7.10;100.00
3428;BME280;1727;42.624;23.406;2023-02-28T03:27:03;95379.97;;;6.92;100.00
3428;BME280;1727;42.624;23.406;2023-02-28T03:29:35;95375.69;;;7.05;100.00
3428;BME280;1727;42.624;23.406;2023-02-28T03:32:08;95370.31;;;7.21;100.00
3428;BME280;1727;42.624;23.406;2023-02-28T03:34:41;95377.69;;;7.28;100.00
3428;BME280;1727;42.624;23.406;2023-02-28T03:37:16;95368.94;;;7.42;100.00
3428;BME280;1727;42.624;23.406;2023-02-28T03:39:49;95383.69;;;7.43;100.00
3428;BME280;1727;42.624;23.406;2023-02-28T03:42:19;95381.06;;;7.43;100.00
3428;BME280;1727;42.624;23.406;2023-02-28T03:44:50;95382.75;;;7.44;100.00
3428;BME280;1727;42.624;23.406;2023-02-28T03:47:23;95381.75;;;7.59;100.00
3428;BME280;1727;42.624;23.406;2023-02-28T03:49:54;95394.63;;;7.62;100.00
3428;BME280;1727;42.624;23.406;2023-02-28T03:52:27;95389.94;;;7.40;100.00
3428;BME280;1727;42.624;23.406;2023-02-28T03:55:00;95393.97;;;7.59;100.00
3428;BME280;1727;42.624;23.406;2023-02-28T03:57:36;95394.44;;;7.78;100.00
3428;BME280;1727;42.624;23.406;2023-02-28T04:00:06;95389.75;;;7.83;100.00
3428;BME280;1727;42.624;23.406;2023-02-28T04:02:36;95394.16;;;7.95;100.00
3428;BME280;1727;42.624;23.406;2023-02-28T04:05:03;95397.09;;;8.03;100.00
3428;BME280;1727;42.624;23.406;2023-02-28T04:07:32;95381.22;;;8.06;100.00
3428;BME280;1727;42.624;23.406;2023-02-28T04:09:59;95381.63;;;8.00;100.00
3428;BME280;1727;42.624;23.406;2023-02-28T04:12:26;95391.56;;;7.95;100.00
3428;BME280;1727;42.624;23.406;2023-02-28T04:14:53;95386.75;;;7.89;100.00
3428;BME280;1727;42.624;23.406;2023-02-28T04:17:19;95385.81;;;7.90;100.00
3428;BME280;1727;42.624;23.406;2023-02-28T04:19:46;95389.16;;;7.92;100.00
3428;BME280;1727;42.624;23.406;2023-02-28T04:22:13;95391.13;;;7.89;100.00
3428;BME280;1727;42.624;23.406;2023-02-28T04:24:41;95386.22;;;7.84;100.00
3428;BME280;1727;42.624;23.406;2023-02-28T04:27:08;95381.09;;;7.83;100.00
3428;BME280;1727;42.624;23.406;2023-02-28T04:29:35;95378.03;;;7.76;100.00
3428;BME280;1727;42.624;23.406;2023-02-28T04:32:02;95387.00;;;7.72;100.00
3428;BME280;1727;42.624;23.406;2023-02-28T04:34:30;95381.75;;;7.59;100.00
3428;BME280;1727;42.624;23.406;2023-02-28T04:36:57;95389.06;;;7.27;100.00
3428;BME280;1727;42.624;23.406;2023-02-28T04:39:25;95392.22;;;7.18;100.00
3428;BME280;1727;42.624;23.406;2023-02-28T04:41:54;95396.03;;;7.00;100.00
3428;BME280;1727;42.624;23.406;2023-02-28T04:44:22;95410.28;;;6.94;100.00
3428;BME280;1727;42.624;23.406;2023-02-28T04:46:49;95408.88;;;6.89;100.00
3428;BME280;1727;42.624;23.406;2023-02-28T04:49:16;95409.81;;;7.02;100.00
3428;BME280;1727;42.624;23.406;2023-02-28T04:51:43;95411.81;;;7.11;100.00
3428;BME280;1727;42.624;23.406;2023-02-28T04:54:09;95409.75;;;7.16;100.00
3428;BME280;1727;42.624;23.406;2023-02-28T04:56:36;95400.19;;;7.43;100.00
3428;BME280;1727;42.624;23.406;2023-02-28T04:59:04;95402.69;;;7.45;100.00
3428;BME280;1727;42.624;23.406;2023-02-28T05:01:33;95417.56;;;7.30;100.00
3428;BME280;1727;42.624;23.406;2023-02-28T05:04:01;95418.44;;;7.43;100.00
3428;BME280;1727;42.624;23.406;2023-02-28T05:06:30;95408.66;;;7.47;100.00
3428;BME280;1727;42.624;23.406;2023-02-28T05:08:57;95408.81;;;7.31;100.00
3428;BME280;1727;42.624;23.406;2023-02-28T05:11:27;95416.66;;;7.17;100.00
3428;BME280;1727;42.624;23.406;2023-02-28T05:13:59;95417.38;;;7.33;100.00
3428;BME280;1727;42.624;23.406;2023-02-28T05:16:27;95418.56;;;7.42;100.00
3428;BME280;1727;42.624;23.406;2023-02-28T05:18:54;95419.94;;;7.47;100.00
3428;BME280;1727;42.624;23.406;2023-02-28T05:21:26;95427.19;;;7.57;100.00
3428;BME280;1727;42.624;23.406;2023-02-28T05:23:53;95424.81;;;7.66;100.00
3428;BME280;1727;42.624;23.406;2023-02-28T05:26:21;95433.44;;;7.81;100.00
3428;BME280;1727;42.624;23.406;2023-02-28T05:28:48;95429.69;;;7.85;100.00
3428;BME280;1727;42.624;23.406;2023-02-28T05:31:14;95431.78;;;7.93;100.00
3428;BME280;1727;42.624;23.406;2023-02-28T05:33:43;95441.41;;;7.92;100.00
3428;BME280;1727;42.624;23.406;2023-02-28T05:36:09;95434.41;;;7.93;100.00
3428;BME280;1727;42.624;23.406;2023-02-28T05:38:36;95443.72;;;7.97;100.00
3428;BME280;1727;42.624;23.406;2023-02-28T05:41:07;95445.38;;;7.98;100.00
3428;BME280;1727;42.624;23.406;2023-02-28T05:43:34;95446.44;;;7.95;100.00
3428;BME280;1727;42.624;23.406;2023-02-28T05:46:03;95449.16;;;7.94;100.00
3428;BME280;1727;42.624;23.406;2023-02-28T05:48:31;95450.19;;;7.91;100.00
3428;BME280;1727;42.624;23.406;2023-02-28T05:50:59;95457.63;;;7.97;100.00
3428;BME280;1727;42.624;23.406;2023-02-28T05:53:31;95456.28;;;8.04;100.00
3428;BME280;1727;42.624;23.406;2023-02-28T05:55:58;95461.59;;;8.03;100.00
3428;BME280;1727;42.624;23.406;2023-02-28T05:58:25;95460.22;;;7.97;100.00
3428;BME280;1727;42.624;23.406;2023-02-28T06:00:55;95459.44;;;8.10;100.00
3428;BME280;1727;42.624;23.406;2023-02-28T06:03:23;95456.53;;;8.14;100.00
3428;BME280;1727;42.624;23.406;2023-02-28T06:05:50;95460.44;;;8.07;100.00
3428;BME280;1727;42.624;23.406;2023-02-28T06:08:18;95449.31;;;8.18;100.00
3428;BME280;1727;42.624;23.406;2023-02-28T06:10:45;95456.31;;;8.30;100.00
3428;BME280;1727;42.624;23.406;2023-02-28T06:13:12;95453.59;;;8.31;100.00
3428;BME280;1727;42.624;23.406;2023-02-28T06:15:39;95456.88;;;8.35;100.00
3428;BME280;1727;42.624;23.406;2023-02-28T06:18:06;95462.34;;;8.45;100.00
3428;BME280;1727;42.624;23.406;2023-02-28T06:20:32;95457.06;;;8.32;100.00
3428;BME280;1727;42.624;23.406;2023-02-28T06:22:59;95471.19;;;8.29;100.00
3428;BME280;1727;42.624;23.406;2023-02-28T06:25:28;95454.63;;;8.16;100.00
3428;BME280;1727;42.624;23.406;2023-02-28T06:27:55;95460.59;;;8.31;100.00
3428;BME280;1727;42.624;23.406;2023-02-28T06:30:22;95466.50;;;8.34;100.00
3428;BME280;1727;42.624;23.406;2023-02-28T06:32:52;95459.97;;;8.15;100.00
3428;BME280;1727;42.624;23.406;2023-02-28T06:35:19;95461.94;;;8.11;100.00
3428;BME280;1727;42.624;23.406;2023-02-28T06:37:45;95460.75;;;8.02;100.00
3428;BME280;1727;42.624;23.406;2023-02-28T06:40:13;95462.59;;;8.15;100.00
3428;BME280;1727;42.624;23.406;2023-02-28T06:42:41;95464.06;;;8.19;100.00
3428;BME280;1727;42.624;23.406;2023-02-28T06:45:09;95469.06;;;8.22;100.00
3428;BME280;1727;42.624;23.406;2023-02-28T06:47:36;95467.41;;;8.21;100.00
3428;BME280;1727;42.624;23.406;2023-02-28T06:50:04;95448.25;;;8.20;100.00
3428;BME280;1727;42.624;23.406;2023-02-28T06:52:31;95468.34;;;8.20;100.00
3428;BME280;1727;42.624;23.406;2023-02-28T06:54:57;95472.41;;;8.24;100.00
3428;BME280;1727;42.624;23.406;2023-02-28T06:57:27;95476.97;;;8.07;100.00
3428;BME280;1727;42.624;23.406;2023-02-28T06:59:57;95467.59;;;8.18;100.00
3428;BME280;1727;42.624;23.406;2023-02-28T07:02:25;95472.63;;;8.21;100.00
3428;BME280;1727;42.624;23.406;2023-02-28T07:04:52;95475.34;;;8.19;100.00
3428;BME280;1727;42.624;23.406;2023-02-28T07:07:19;95473.81;;;8.02;100.00
3428;BME280;1727;42.624;23.406;2023-02-28T07:09:46;95473.25;;;8.12;100.00
3428;BME280;1727;42.624;23.406;2023-02-28T07:12:12;95473.16;;;8.13;100.00
3428;BME280;1727;42.624;23.406;2023-02-28T07:14:39;95467.19;;;8.11;100.00
3428;BME280;1727;42.624;23.406;2023-02-28T07:17:08;95469.72;;;8.25;100.00
3428;BME280;1727;42.624;23.406;2023-02-28T07:19:37;95469.13;;;8.34;100.00
3428;BME280;1727;42.624;23.406;2023-02-28T07:22:04;95465.38;;;8.38;100.00
3428;BME280;1727;42.624;23.406;2023-02-28T07:24:31;95469.19;;;8.33;100.00
3428;BME280;1727;42.624;23.406;2023-02-28T07:26:58;95471.63;;;8.36;100.00
3428;BME280;1727;42.624;23.406;2023-02-28T07:29:26;95472.53;;;8.22;100.00
3428;BME280;1727;42.624;23.406;2023-02-28T07:31:53;95467.88;;;8.00;100.00
3428;BME280;1727;42.624;23.406;2023-02-28T07:34:21;95467.66;;;8.03;100.00
3428;BME280;1727;42.624;23.406;2023-02-28T07:36:49;95464.25;;;8.16;100.00
3428;BME280;1727;42.624;23.406;2023-02-28T07:39:18;95463.31;;;8.17;100.00
3428;BME280;1727;42.624;23.406;2023-02-28T07:41:45;95467.50;;;8.32;100.00
3428;BME280;1727;42.624;23.406;2023-02-28T07:44:12;95472.34;;;8.38;100.00
3428;BME280;1727;42.624;23.406;2023-02-28T07:46:39;95472.38;;;8.51;100.00
3428;BME280;1727;42.624;23.406;2023-02-28T07:49:06;95463.19;;;8.45;100.00
3428;BME280;1727;42.624;23.406;2023-02-28T07:51:34;95466.94;;;8.54;100.00
3428;BME280;1727;42.624;23.406;2023-02-28T07:54:01;95467.72;;;8.68;100.00
3428;BME280;1727;42.624;23.406;2023-02-28T07:56:27;95459.09;;;8.79;100.00
3428;BME280;1727;42.624;23.406;2023-02-28T07:58:54;95461.41;;;8.96;100.00
3428;BME280;1727;42.624;23.406;2023-02-28T08:01:21;95462.25;;;8.97;100.00
3428;BME280;1727;42.624;23.406;2023-02-28T08:03:47;95465.56;;;9.12;100.00
3428;BME280;1727;42.624;23.406;2023-02-28T08:06:17;95458.56;;;9.12;100.00
3428;BME280;1727;42.624;23.406;2023-02-28T08:08:46;95469.22;;;9.22;100.00
3428;BME280;1727;42.624;23.406;2023-02-28T08:11:13;95464.56;;;9.38;100.00
3428;BME280;1727;42.624;23.406;2023-02-28T08:13:40;95478.06;;;9.57;100.00
3428;BME280;1727;42.624;23.406;2023-02-28T08:16:07;95469.84;;;9.62;100.00
3428;BME280;1727;42.624;23.406;2023-02-28T08:18:34;95475.09;;;9.62;100.00
3428;BME280;1727;42.624;23.406;2023-02-28T08:21:06;95454.13;;;9.62;100.00
3428;BME280;1727;42.624;23.406;2023-02-28T08:23:33;95450.34;;;9.66;100.00
3428;BME280;1727;42.624;23.406;2023-02-28T08:26:03;95466.31;;;9.87;100.00
3428;BME280;1727;42.624;23.406;2023-02-28T08:28:30;95469.16;;;9.84;100.00
3428;BME280;1727;42.624;23.406;2023-02-28T08:30:57;95470.19;;;9.81;100.00
3428;BME280;1727;42.624;23.406;2023-02-28T08:33:25;95469.69;;;10.00;100.00
3428;BME280;1727;42.624;23.406;2023-02-28T08:35:53;95464.81;;;10.07;100.00
3428;BME280;1727;42.624;23.406;2023-02-28T08:38:21;95472.16;;;10.14;100.00
3428;BME280;1727;42.624;23.406;2023-02-28T08:40:47;95476.16;;;10.31;100.00
3428;BME280;1727;42.624;23.406;2023-02-28T08:43:16;95472.09;;;10.27;100.00
3428;BME280;1727;42.624;23.406;2023-02-28T08:45:42;95470.34;;;10.39;100.00
3428;BME280;1727;42.624;23.406;2023-02-28T08:48:09;95467.59;;;10.40;100.00
3428;BME280;1727;42.624;23.406;2023-02-28T08:50:36;95469.44;;;10.51;100.00
3428;BME280;1727;42.624;23.406;2023-02-28T08:53:03;95475.81;;;10.71;100.00
3428;BME280;1727;42.624;23.406;2023-02-28T08:55:29;95474.50;;;10.76;100.00
3428;BME280;1727;42.624;23.406;2023-02-28T08:57:56;95477.16;;;11.10;100.00
3428;BME280;1727;42.624;23.406;2023-02-28T09:00:25;95479.78;;;11.21;100.00
3428;BME280;1727;42.624;23.406;2023-02-28T09:02:51;95472.47;;;11.47;100.00
3428;BME280;1727;42.624;23.406;2023-02-28T09:05:20;95477.97;;;11.66;100.00
3428;BME280;1727;42.624;23.406;2023-02-28T09:07:46;95489.94;;;11.37;96.65
3428;BME280;1727;42.624;23.406;2023-02-28T09:10:13;95479.28;;;11.49;97.78
3428;BME280;1727;42.624;23.406;2023-02-28T09:12:40;95477.22;;;11.75;98.27
3428;BME280;1727;42.624;23.406;2023-02-28T09:15:07;95483.88;;;12.02;97.75
3428;BME280;1727;42.624;23.406;2023-02-28T09:17:36;95482.59;;;12.28;97.51
3428;BME280;1727;42.624;23.406;2023-02-28T09:20:03;95493.69;;;12.32;93.16
3428;BME280;1727;42.624;23.406;2023-02-28T09:22:30;95483.88;;;12.34;91.26
3428;BME280;1727;42.624;23.406;2023-02-28T09:24:57;95479.66;;;12.10;92.73
3428;BME280;1727;42.624;23.406;2023-02-28T09:27:24;95478.75;;;12.00;92.14
3428;BME280;1727;42.624;23.406;2023-02-28T09:29:51;95477.56;;;11.93;93.55
3428;BME280;1727;42.624;23.406;2023-02-28T09:32:18;95480.59;;;11.66;93.08
3428;BME280;1727;42.624;23.406;2023-02-28T09:34:46;95484.88;;;11.56;95.16
3428;BME280;1727;42.624;23.406;2023-02-28T09:37:13;95477.97;;;11.55;95.95
3428;BME280;1727;42.624;23.406;2023-02-28T09:39:39;95479.41;;;11.59;97.17
3428;BME280;1727;42.624;23.406;2023-02-28T09:42:20;95477.59;;;11.71;96.63
3428;BME280;1727;42.624;23.406;2023-02-28T09:44:50;95476.25;;;11.76;93.91
3428;BME280;1727;42.624;23.406;2023-02-28T09:47:24;95476.75;;;11.70;94.89
3428;BME280;1727;42.624;23.406;2023-02-28T09:49:56;95472.81;;;11.54;96.44
3428;BME280;1727;42.624;23.406;2023-02-28T09:52:27;95469.59;;;11.50;95.48
3428;BME280;1727;42.624;23.406;2023-02-28T09:54:55;95480.03;;;11.40;96.52
3428;BME280;1727;42.624;23.406;2023-02-28T09:57:32;95478.47;;;11.38;96.91
3428;BME280;1727;42.624;23.406;2023-02-28T10:00:06;95471.78;;;11.45;97.15
3428;BME280;1727;42.624;23.406;2023-02-28T10:02:52;95471.66;;;11.35;95.58
3428;BME280;1727;42.624;23.406;2023-02-28T10:05:27;95460.41;;;11.44;97.21
3428;BME280;1727;42.624;23.406;2023-02-28T10:08:02;95468.91;;;11.37;96.82
3428;BME280;1727;42.624;23.406;2023-02-28T10:10:37;95459.84;;;11.18;97.01
3428;BME280;1727;42.624;23.406;2023-02-28T10:13:13;95471.91;;;11.32;100.00
3428;BME280;1727;42.624;23.406;2023-02-28T10:15:42;95461.38;;;11.21;97.66
3428;BME280;1727;42.624;23.406;2023-02-28T10:18:13;95449.09;;;11.33;98.21
3428;BME280;1727;42.624;23.406;2023-02-28T10:20:43;95448.84;;;11.36;97.19
3428;BME280;1727;42.624;23.406;2023-02-28T10:23:16;95453.63;;;11.42;96.99
3428;BME280;1727;42.624;23.406;2023-02-28T10:25:50;95448.13;;;11.45;96.28
3428;BME280;1727;42.624;23.406;2023-02-28T10:28:19;95449.41;;;11.51;96.22
3428;BME280;1727;42.624;23.406;2023-02-28T10:30:49;95438.34;;;11.36;95.80
3428;BME280;1727;42.624;23.406;2023-02-28T10:33:23;95439.03;;;11.60;98.42
3428;BME280;1727;42.624;23.406;2023-02-28T10:35:52;95436.84;;;11.65;95.52
3428;BME280;1727;42.624;23.406;2023-02-28T10:38:21;95433.72;;;11.71;95.00
3428;BME280;1727;42.624;23.406;2023-02-28T10:40:48;95430.94;;;11.41;96.86
3428;BME280;1727;42.624;23.406;2023-02-28T10:43:21;95426.16;;;11.35;95.62
3428;BME280;1727;42.624;23.406;2023-02-28T10:46:00;95423.97;;;11.51;96.17
3428;BME280;1727;42.624;23.406;2023-02-28T10:48:37;95417.03;;;11.61;96.89
3428;BME280;1727;42.624;23.406;2023-02-28T10:51:07;95407.44;;;11.71;96.00
3428;BME280;1727;42.624;23.406;2023-02-28T10:53:38;95411.03;;;11.70;95.69
3428;BME280;1727;42.624;23.406;2023-02-28T10:56:15;95399.31;;;11.86;95.60
3428;BME280;1727;42.624;23.406;2023-02-28T10:58:50;95399.53;;;11.83;94.17
3428;BME280;1727;42.624;23.406;2023-02-28T11:01:19;95389.66;;;11.64;94.87
3428;BME280;1727;42.624;23.406;2023-02-28T11:03:47;95393.63;;;11.58;95.44
3428;BME280;1727;42.624;23.406;2023-02-28T11:06:18;95390.97;;;11.69;96.20
3428;BME280;1727;42.624;23.406;2023-02-28T11:08:48;95387.94;;;11.74;95.46
3428;BME280;1727;42.624;23.406;2023-02-28T11:11:16;95392.28;;;11.64;95.82
3428;BME280;1727;42.624;23.406;2023-02-28T11:13:44;95391.00;;;11.47;97.41
3428;BME280;1727;42.624;23.406;2023-02-28T11:16:13;95386.72;;;11.57;98.16
3428;BME280;1727;42.624;23.406;2023-02-28T11:18:44;95385.38;;;11.52;99.38
3428;BME280;1727;42.624;23.406;2023-02-28T11:21:20;95383.97;;;11.59;97.31
3428;BME280;1727;42.624;23.406;2023-02-28T11:23:51;95381.59;;;11.44;98.54
3428;BME280;1727;42.624;23.406;2023-02-28T11:26:40;95379.66;;;11.58;96.37
3428;BME280;1727;42.624;23.406;2023-02-28T11:29:16;95383.66;;;11.73;98.50
3428;BME280;1727;42.624;23.406;2023-02-28T11:32:01;95381.97;;;11.83;94.63
3428;BME280;1727;42.624;23.406;2023-02-28T11:34:28;95378.16;;;11.87;95.02
3428;BME280;1727;42.624;23.406;2023-02-28T11:36:58;95382.53;;;12.19;95.29
3428;BME280;1727;42.624;23.406;2023-02-28T11:39:26;95378.75;;;12.32;92.30
3428;BME280;1727;42.624;23.406;2023-02-28T11:42:16;95386.00;;;12.19;93.25
3428;BME280;1727;42.624;23.406;2023-02-28T11:44:59;95387.47;;;12.33;91.40
3428;BME280;1727;42.624;23.406;2023-02-28T11:47:33;95377.72;;;12.45;90.75
3428;BME280;1727;42.624;23.406;2023-02-28T11:50:16;95387.09;;;12.58;92.23
3428;BME280;1727;42.624;23.406;2023-02-28T11:52:52;95377.94;;;12.62;89.85
3428;BME280;1727;42.624;23.406;2023-02-28T11:55:24;95389.38;;;12.73;89.00
3428;BME280;1727;42.624;23.406;2023-02-28T11:58:25;95381.81;;;12.37;91.76
3428;BME280;1727;42.624;23.406;2023-02-28T12:01:03;95375.53;;;12.50;90.26
3428;BME280;1727;42.624;23.406;2023-02-28T12:03:43;95379.63;;;12.43;89.82
3428;BME280;1727;42.624;23.406;2023-02-28T12:06:17;95382.09;;;12.34;90.90
3428;BME280;1727;42.624;23.406;2023-02-28T12:09:13;95371.88;;;11.99;92.30
3428;BME280;1727;42.624;23.406;2023-02-28T12:11:51;95376.41;;;11.97;93.55
3428;BME280;1727;42.624;23.406;2023-02-28T12:14:31;95365.22;;;12.16;92.64
3428;BME280;1727;42.624;23.406;2023-02-28T12:17:11;95368.69;;;12.17;90.76
3428;BME280;1727;42.624;23.406;2023-02-28T12:19:47;95371.19;;;12.18;90.42
3428;BME280;1727;42.624;23.406;2023-02-28T12:22:26;95365.66;;;12.21;91.11
3428;BME280;1727;42.624;23.406;2023-02-28T12:25:10;95369.25;;;12.20;91.34
3428;BME280;1727;42.624;23.406;2023-02-28T12:27:46;95366.28;;;12.34;90.51
3428;BME280;1727;42.624;23.406;2023-02-28T12:30:17;95368.28;;;12.42;94.08
3428;BME280;1727;42.624;23.406;2023-02-28T12:32:49;95354.47;;;12.08;94.53
3428;BME280;1727;42.624;23.406;2023-02-28T12:35:22;95360.44;;;12.10;94.80
3428;BME280;1727;42.624;23.406;2023-02-28T12:37:56;95373.22;;;11.94;96.25
3428;BME280;1727;42.624;23.406;2023-02-28T12:40:38;95364.88;;;11.89;92.53
3428;BME280;1727;42.624;23.406;2023-02-28T12:43:09;95355.19;;;11.89;93.97
3428;BME280;1727;42.624;23.406;2023-02-28T12:45:41;95354.28;;;11.68;93.64
3428;BME280;1727;42.624;23.406;2023-02-28T12:48:11;95359.91;;;11.63;94.16
3428;BME280;1727;42.624;23.406;2023-02-28T12:50:41;95354.59;;;11.74;95.93
3428;BME280;1727;42.624;23.406;2023-02-28T12:53:17;95351.28;;;11.72;96.61
3428;BME280;1727;42.624;23.406;2023-02-28T12:55:57;95354.88;;;11.71;95.98
3428;BME280;1727;42.624;23.406;2023-02-28T12:58:28;95356.97;;;11.77;94.83
3428;BME280;1727;42.624;23.406;2023-02-28T13:04:43;95353.44;;;11.67;93.91
3428;BME280;1727;42.624;23.406;2023-02-28T13:07:29;95368.78;;;11.51;95.02
3428;BME280;1727;42.624;23.406;2023-02-28T13:10:04;95360.25;;;11.70;95.44
3428;BME280;1727;42.624;23.406;2023-02-28T13:12:33;95357.09;;;11.76;93.55
3428;BME280;1727;42.624;23.406;2023-02-28T13:15:05;95357.16;;;11.65;92.74
3428;BME280;1727;42.624;23.406;2023-02-28T13:17:37;95358.00;;;11.65;93.63
3428;BME280;1727;42.624;23.406;2023-02-28T13:20:15;95353.69;;;11.64;93.80
3428;BME280;1727;42.624;23.406;2023-02-28T13:22:43;95357.19;;;11.54;94.02
3428;BME280;1727;42.624;23.406;2023-02-28T13:25:50;95356.91;;;11.68;94.29
3428;BME280;1727;42.624;23.406;2023-02-28T13:31:31;95354.38;;;11.34;94.15
3428;BME280;1727;42.624;23.406;2023-02-28T13:34:12;95354.47;;;11.44;95.59
3428;BME280;1727;42.624;23.406;2023-02-28T13:36:40;95347.59;;;11.64;94.62
3428;BME280;1727;42.624;23.406;2023-02-28T13:42:30;95342.91;;;11.78;93.40
3428;BME280;1727;42.624;23.406;2023-02-28T13:45:25;95349.34;;;11.86;92.91